Oceaneering Intl Inc (OII) Latest Bloomsberg Price


Mffais Ranking #2524 Overall / #48 Industry
Industry: Oil And Gas Services And Equip

Number of Companies: 248 (Ranking #644 Overall/#11 Industry)
Inflow: $ 124,455 (K) (Ranking #837 Overall/#16 Industry)
Outflow: $ -234,785 (K)
Mffais Flow: $ -110,330 (K) (Ranking #2524 Overall/#48 Industry)


Receive a FREE weekly executive review of stocks moving into the top 10, taking the top industy spot or moving up within their industry. Sent directly to your Inbox every Saturday. Sign up today and get last week's review immediately sent to you.

We value and respect your privacy. Please read our Terms and Conditions which states our firm commitment to your privacy. Your email address will not be shared with a third party, nor will it be sold or used for purposes other than subscription for the weekly review.

Owner CPOR Shares Action Qty Chg Invested (K) Total Current Value (K)
Cutler Group Lp 2016-09-30 628,023 Added More 615,423 $ 16,739 $ 17,082
Brandywine Global Investment Management Llc 2016-09-30 572,600 Added More 366,805 $ 9,977 $ 15,574
Sumitomo Mitsui Trust Holdings Inc 2016-09-30 296,757 New Holding 296,757 $ 8,071 $ 8,071
First Quadrant L P Ca 2016-09-30 885,602 Added More 292,708 $ 7,961 $ 24,088
Walthausen Co Llc 2016-09-30 237,910 New Holding 237,910 $ 6,471 $ 6,471
Hermes Investment Management Ltd 2016-09-30 405,958 Added More 225,079 $ 6,122 $ 11,042
Sprucegrove Investment Management Ltd 2016-09-30 954,700 Added More 200,600 $ 5,456 $ 25,967
Cornerstone Capital Management Holdings Llc 2016-09-30 201,543 Added More 184,234 $ 5,011 $ 5,481
Blackrock Inc 2016-09-30 249,185 Added More 173,034 $ 4,706 $ 6,777
Parametric Portfolio Associates Llc 2016-09-30 502,788 Added More 167,814 $ 4,564 $ 13,675
Rhumbline Advisers 2016-09-30 321,463 Added More 160,465 $ 4,364 $ 8,743
Marshall Wace Llp 2016-09-30 146,314 New Holding 146,314 $ 3,979 $ 3,979
Van Eck Associates Corp 2016-09-30 956,870 Added More 141,986 $ 3,862 $ 26,026
Scout Investments Inc 2016-09-30 470,873 Added More 140,399 $ 3,818 $ 12,807
Personal Capital Advisors Corp 2016-09-30 367,842 Added More 140,168 $ 3,812 $ 10,005
Nikko Asset Management Americas Inc 2016-09-30 296,757 Added More 99,700 $ 2,711 $ 8,071
Css Llc Il 2016-09-30 91,800 New Holding 91,800 $ 2,496 $ 2,496
Madison Investment Holdings Inc 2016-09-30 374,804 Added More 91,409 $ 2,486 $ 10,194
Axa 2016-09-30 85,527 Added More 79,447 $ 2,160 $ 2,326
Dimensional Fund Advisors Lp 2016-09-30 1,522,591 Added More 66,916 $ 1,820 $ 41,414
Gotham Asset Management Llc 2016-09-30 429,894 Added More 61,944 $ 1,684 $ 11,693
Teachers Advisors Inc 2016-09-30 406,176 Added More 37,328 $ 1,015 $ 11,047
Miles Capital Inc 2016-09-30 34,813 New Holding 34,813 $ 946 $ 946
Majedie Asset Management Ltd 2016-09-30 412,265 Added More 32,015 $ 870 $ 11,213
Cullen Capital Management Llc 2016-09-30 28,000 New Holding 28,000 $ 761 $ 761
Meeder Asset Management Inc 2016-09-30 26,094 New Holding 26,094 $ 709 $ 709
I G Investment Management Ltd 2016-09-30 63,221 Added More 25,655 $ 697 $ 1,719
Vident Investment Advisory Llc 2016-09-30 76,422 Added More 21,916 $ 596 $ 2,078
Squarepoint Ops Llc 2016-09-30 41,905 Added More 21,234 $ 577 $ 1,139
Johnson Investment Counsel Inc 2016-09-30 17,400 New Holding 17,400 $ 473 $ 473
South Dakota Investment Council 2016-09-30 15,300 New Holding 15,300 $ 416 $ 416
Amp Capital Investors Ltd 2016-09-30 48,600 Added More 15,100 $ 410 $ 1,321
Rockefeller Financial Services Inc 2016-09-30 14,460 New Holding 14,460 $ 393 $ 393
Cadence Capital Management Llc 2016-09-30 79,336 Added More 14,379 $ 391 $ 2,157
First Merchants Corp 2016-09-30 13,944 New Holding 13,944 $ 379 $ 379
Engineers Gate Manager Lp 2016-09-30 39,311 Added More 13,711 $ 372 $ 1,069
Fox Run Management L L C 2016-09-30 13,700 New Holding 13,700 $ 372 $ 372
Atlanta Capital Management Co L L C 2016-09-30 2,103,772 Added More 13,123 $ 356 $ 57,222
Emerald Acquisition Ltd 2016-09-30 1,082,010 Added More 12,008 $ 326 $ 29,430
Parkwood Llc 2016-09-30 11,411 New Holding 11,411 $ 310 $ 310
Geneva Advisors Llc 2016-09-30 10,800 New Holding 10,800 $ 293 $ 293
State Of New Jersey Common Pension Fund D 2016-09-30 31,000 Added More 10,000 $ 272 $ 843
Keybank National Association Oh 2016-09-30 24,033 Added More 9,862 $ 268 $ 653
Guggenheim Capital Llc 2016-09-30 73,900 Added More 9,483 $ 257 $ 2,010
Breton Hill Capital Ltd 2016-09-30 61,475 Added More 9,153 $ 248 $ 1,672
Invictus Rg 2016-09-30 17,558 Added More 9,102 $ 247 $ 477
Verition Fund Management Llc 2016-09-30 9,019 New Holding 9,019 $ 245 $ 245
Bbva Compass Bancshares Inc 2016-09-30 8,848 New Holding 8,848 $ 240 $ 240
Zweig-Dimenna Associates Llc 2016-09-30 8,600 New Holding 8,600 $ 233 $ 233
Crestpoint Capital Management Llc 2016-09-30 35,100 Added More 8,200 $ 223 $ 954
Fisher Asset Management Llc 2016-09-30 698,733 Added More 8,110 $ 220 $ 19,005
Td Asset Management Inc 2016-09-30 8,000 New Holding 8,000 $ 217 $ 217
Cubist Systematic Strategies Llc 2016-09-30 39,200 Added More 7,908 $ 215 $ 1,066
Virtu Financial Llc 2016-09-30 7,735 New Holding 7,735 $ 210 $ 210
Peak6 Investments L P 2016-09-30 18,500 Added More 7,400 $ 201 $ 503
Sei Investments Co 2016-09-30 43,735 Added More 6,600 $ 179 $ 1,189
First Citizens Bank Trust Co 2016-09-30 13,905 Added More 5,642 $ 153 $ 378
Hanson Doremus Investment Management 2016-09-30 5,470 Added More 5,420 $ 147 $ 148
Point72 Asia Hong Kong Ltd 2016-09-30 11,200 Added More 5,400 $ 146 $ 304
Alambic Investment Management L P 2016-09-30 13,100 Added More 5,300 $ 144 $ 356
Ahl Partners Llp 2016-09-30 23,490 Added More 5,199 $ 141 $ 638
Euclidean Technologies Management Llc 2016-09-30 71,263 Added More 5,135 $ 139 $ 1,938
Creative Planning 2016-09-30 6,189 Added More 4,746 $ 129 $ 168
Indexiq Advisors Llc 2016-09-30 4,037 New Holding 4,037 $ 109 $ 109
Jane Street Group Llc 2016-09-30 51,374 Added More 3,876 $ 105 $ 1,397
Zebra Capital Management Llc 2016-09-30 27,103 Added More 2,883 $ 78 $ 737
Springbok Capital Management Llc 2016-09-30 2,800 New Holding 2,800 $ 76 $ 76
Lucus Advisors Llc 2016-09-30 14,402 Added More 2,788 $ 75 $ 391
Walleye Trading Llc 2016-09-30 2,800 Added More 2,600 $ 70 $ 76
Alpha Windward Llc 2016-09-30 14,640 Added More 2,520 $ 68 $ 398
Blackrock Investment Management Llc 2016-09-30 336,086 Added More 2,514 $ 68 $ 9,141
California State Teachers Retirement System 2016-09-30 214,766 Added More 1,700 $ 46 $ 5,841
Monroe Bank Trust Mi 2016-09-30 23,842 Added More 1,653 $ 44 $ 648
Cwm Llc 2016-09-30 13,873 Added More 1,518 $ 41 $ 377
Eagle Boston Investment Management Inc 2016-09-30 181,709 Added More 1,451 $ 39 $ 4,942
Salem Investment Counselors Inc 2016-09-30 1,301 New Holding 1,301 $ 35 $ 35
Fiera Capital Corp 2016-09-30 56,200 Added More 1,200 $ 32 $ 1,528
Stifel Financial Corp 2016-09-30 25,748 Added More 701 $ 19 $ 700
Comerica Bank 2016-09-30 74,757 Added More 690 $ 18 $ 2,033
Mason Street Advisors Llc 2016-09-30 45,371 Added More 652 $ 17 $ 1,234
Pacer Advisors Inc 2016-09-30 7,521 Added More 636 $ 17 $ 204
Ls Investment Advisors Llc 2016-09-30 6,257 Added More 413 $ 11 $ 170
Zurcher Kantonalbank Zurich Cantonalbank 2016-09-30 3,019 Added More 382 $ 10 $ 82
Advisor Group Inc 2016-09-30 2,169 Added More 365 $ 9 $ 58
Weaver C Barksdale Associates Inc 2016-09-30 504 Added More 125 $ 3 $ 13
State Treasurer State Of Michigan 2016-09-30 39,500 Added More 100 $ 2 $ 1,074
Smith Asset Management Group Lp 2016-09-30 1,790 Added More 100 $ 2 $ 48
Mutual Of America Capital Management Llc 2016-09-30 72,117 Added More 90 $ 2 $ 1,961
Ladenburg Thalmann Financial Services Inc 2016-09-30 2,851 Added More 89 $ 2 $ 77
Simplex Trading Llc 2016-09-30 73 New Holding 73 $ 1 $ 1
Cable Hill Partners Llc 2016-09-30 38 New Holding 38 $ 1 $ 1
Kanaly Trust Co 2016-09-30 413 Added More 37 $ 1 $ 11
Enterprise Financial Services Corp 2016-09-30 30 New Holding 30 $ 0 $ 0
Motco 2016-09-30 23 New Holding 23 $ 0 $ 0
Quadrant Capital Group Llc 2016-09-30 52 Added More 13 $ 0 $ 1
Msi Financial Services Inc 2016-09-30 295 Added More 1 $ 0 $ 8
Jacobi Capital Management Llc 2016-09-30 223 No Change 0 $ 0 $ 6
Boys Arnold Co Inc 2016-09-30 8,000 No Change 0 $ 0 $ 217
Dupont Capital Management Corp 2016-09-30 32,300 No Change 0 $ 0 $ 878
High Point Bank Trust Co 2016-09-30 147 No Change 0 $ 0 $ 3
Icon Advisers Inc Co 2016-09-30 271,300 No Change 0 $ 0 $ 7,379
Advantus Capital Management Inc 2016-09-30 11,876 No Change 0 $ 0 $ 323
Baldwin Brothers Inc Ma 2016-09-30 200 No Change 0 $ 0 $ 5
Ledyard National Bank 2016-09-30 65 No Change 0 $ 0 $ 1
Shelton Capital Management 2016-09-30 10,060 No Change 0 $ 0 $ 273
Nisa Investment Advisors Llc 2016-09-30 24,720 No Change 0 $ 0 $ 672
Ncm Capital Management Group Inc 2016-09-30 2,100 No Change 0 $ 0 $ 57
Texan Capital Management 2016-09-30 10,706 No Change 0 $ 0 $ 291
Dekabank Deutsche Girozentrale 2016-09-30 2,500 No Change 0 $ 0 $ 68
Americafirst Capital Management Llc 2016-09-30 2,814 No Change 0 $ 0 $ 76
Qs Investors Llc 2016-09-30 12 No Change 0 $ 0 $ 0
American Research Management Co 2016-09-30 1,200 No Change 0 $ 0 $ 32
Massmutual Trust Co Fsb Adv 2016-06-30 0 New Holding 0 $ 0 $ 0
Meridian Management Co 2016-09-30 8,000 No Change 0 $ 0 $ 217
Nuveen Asset Management Llc 2016-09-30 40,523 No Change 0 $ 0 $ 1,102
Vantage Investment Partners Llc 2016-09-30 76,676 No Change 0 $ 0 $ 2,085
J Safra Asset Management Corp 2016-09-30 810 No Change 0 $ 0 $ 22
Utah Retirement Systems 2016-09-30 17,782 No Change 0 $ 0 $ 483
Arizona State Retirement System 2016-09-30 38,339 No Change 0 $ 0 $ 1,042
City Holding Co 2016-09-30 33 No Change 0 $ 0 $ 0
Teachers Retirement System Of The State Of Kentucky 2016-09-30 23,300 No Change 0 $ 0 $ 633
Archford Capital Strategies Llc 2016-09-30 12 No Change 0 $ 0 $ 0
Bank Of The West 2016-09-30 7,550 No Change 0 $ 0 $ 205
Next Financial Group Inc 2016-09-30 30 No Change 0 $ 0 $ 0
Ropes Wealth Advisors Llc 2016-09-30 10 No Change 0 $ 0 $ 0
Brown Brothers Harriman Co 2016-09-30 148 No Change 0 $ 0 $ 4
Bronfman E L Rothschild L P 2016-09-30 92 Sold Some -2 $ -0 $ 2
Exencial Wealth Advisors Llc 2016-09-30 35,518 Sold Some -12 $ -0 $ 966
Citizens Financial Group Inc Ri 2016-09-30 229 Sold Some -24 $ -0 $ 6
Gemmer Asset Management Llc 2016-09-30 216 Sold Some -28 $ -0 $ 5
M T Bank Corp 2016-09-30 9,460 Sold Some -32 $ -0 $ 257
Sandy Spring Bank 2016-09-30 0 Sold All -37 $ -1 $ 0
Northwestern Mutual Investment Management Company Llc 2016-09-30 16,886 Sold Some -43 $ -1 $ 459
Northwestern Mutual Wealth Management Co 2016-09-30 164 Sold Some -100 $ -2 $ 4
Ifp Advisors Inc 2016-09-30 109 Sold Some -127 $ -3 $ 2
Wealthtrust-Arizona Llc 2016-09-30 0 Sold All -153 $ -4 $ 0
Dubuque Bank Trust Co 2016-09-30 0 Sold All -180 $ -4 $ 0
Feltz Wealth Plan Inc 2016-09-30 0 Sold All -192 $ -5 $ 0
Advisors Asset Management Inc 2016-09-30 3,825 Sold Some -194 $ -5 $ 104
Ncm Capital Advisers Inc 2016-09-30 2,650 Sold Some -234 $ -6 $ 72
Financial Architects Inc 2016-09-30 0 Sold All -244 $ -6 $ 0
Texas Permanent School Fund 2016-09-30 74,701 Sold Some -277 $ -7 $ 2,031
Bessemer Group Inc 2016-09-30 0 Sold All -300 $ -8 $ 0
Horizon Kinetics Llc 2016-09-30 9,037 Sold Some -334 $ -9 $ 245
Capital Fund Management S A 2016-09-30 17,593 Sold Some -384 $ -10 $ 478
Ftb Advisors Inc 2016-09-30 0 Sold All -412 $ -11 $ 0
Laurel Wealth Advisors Inc 2016-09-30 8,322 Sold Some -430 $ -11 $ 226
Assetmark Inc 2016-09-30 0 Sold All -520 $ -14 $ 0
Piermont Capital Management Inc 2016-09-30 63,860 Sold Some -590 $ -16 $ 1,736
Ibm Retirement Fund 2016-09-30 9,284 Sold Some -605 $ -16 $ 252
Johnson Financial Group Inc 2016-09-30 100 Sold Some -740 $ -20 $ 2
Btim Corp 2016-09-30 797,603 Sold Some -903 $ -24 $ 21,694
Liberty Mutual Group Asset Management Inc 2016-09-30 41,547 Sold Some -930 $ -25 $ 1,130
Gabelli Funds Llc 2016-09-30 285,800 Sold Some -1,000 $ -27 $ 7,773
Bokf Na 2016-09-30 39,571 Sold Some -1,044 $ -28 $ 1,076
Kayne Anderson Rudnick Investment Management Llc 2016-09-30 47,525 Sold Some -1,045 $ -28 $ 1,292
Silvercrest Asset Management Group Llc 2016-09-30 19,665 Sold Some -1,050 $ -28 $ 534
Exane Derivatives 2016-09-30 1 Sold Some -1,152 $ -31 $ 0
Acrospire Investment Management Llc 2016-09-30 2,700 Sold Some -1,200 $ -32 $ 73
Wasatch Advisors Inc 2016-09-30 131,178 Sold Some -1,543 $ -41 $ 3,568
Proshare Advisors Llc 2016-09-30 14,815 Sold Some -1,749 $ -47 $ 402
Commonwealth Bank Of Australia 2016-09-30 0 Sold All -1,900 $ -51 $ 0
Northcoast Asset Management Llc 2016-09-30 45,686 Sold Some -2,025 $ -55 $ 1,242
Checchi Capital Advisers Llc 2016-09-30 0 Sold All -2,077 $ -56 $ 0
Babson Capital Management Llc 2016-09-30 10,000 Sold Some -2,100 $ -57 $ 272
Gillespie Robinson Grimm Inc 2016-09-30 7,700 Sold Some -2,125 $ -57 $ 209
Energy Opportunities Capital Management Llc 2016-09-30 163,271 Sold Some -2,271 $ -61 $ 4,440
Nomura Asset Management Co Ltd 2016-09-30 0 Sold All -2,370 $ -64 $ 0
Nationwide Fund Advisors 2016-09-30 177,815 Sold Some -2,374 $ -64 $ 4,836
Eagle Asset Management Inc 2016-09-30 736,501 Sold Some -2,388 $ -64 $ 20,032
Tredje Ap-Fonden 2016-09-30 0 Sold All -2,500 $ -68 $ 0
Bluemountain Capital Management Llc 2016-09-30 9,098 Sold Some -2,657 $ -72 $ 247
Washington Trust Bank 2016-09-30 0 Sold All -2,920 $ -79 $ 0
First Mercantile Trust Co 2016-09-30 1,900 Sold Some -3,053 $ -83 $ 51
Teacher Retirement System Of Texas 2016-09-30 10,497 Sold Some -3,273 $ -89 $ 285
Gamco Investors Inc Et Al 2016-09-30 396,584 Sold Some -3,300 $ -89 $ 10,787
New York State Teachers Retirement System 2016-09-30 188,341 Sold Some -3,800 $ -103 $ 5,122
Us Bancorp De 2016-09-30 7,098 Sold Some -4,525 $ -123 $ 193
Swiss National Bank 2016-09-30 157,748 Sold Some -5,700 $ -155 $ 4,290
Kennedy Capital Management Inc 2016-09-30 72,710 Sold Some -5,996 $ -163 $ 1,977
Wealthtrust Axiom Llc 2016-09-30 0 Sold All -6,700 $ -182 $ 0
Tributary Capital Management Llc 2016-09-30 0 Sold All -6,800 $ -184 $ 0
Tudor Investment Corp Et Al 2016-09-30 0 Sold All -6,900 $ -187 $ 0
Gsa Capital Partners Llp 2016-09-30 0 Sold All -6,966 $ -189 $ 0
American International Group Inc 2016-09-30 189,502 Sold Some -7,647 $ -207 $ 5,154
Profund Advisors Llc 2016-09-30 19,238 Sold Some -7,765 $ -211 $ 523
Bridgewater Associates Lp 2016-09-30 0 Sold All -7,800 $ -212 $ 0
Omers Administration Corp 2016-09-30 42,000 Sold Some -8,400 $ -228 $ 1,142
Gargoyle Investment Advisor L L C 2016-09-30 14,857 Sold Some -8,500 $ -231 $ 404
Envestnet Asset Management Inc 2016-09-30 20,671 Sold Some -8,563 $ -232 $ 562
Timber Hill Llc 2016-09-30 0 Sold All -8,635 $ -234 $ 0
Raymond James Associates 2016-09-30 55,012 Sold Some -9,049 $ -246 $ 1,496
Panagora Asset Management Inc 2016-09-30 137,221 Sold Some -9,322 $ -253 $ 3,732
Quantbot Technologies Lp 2016-09-30 28,083 Sold Some -9,516 $ -258 $ 763
Cipher Capital Lp 2016-09-30 0 Sold All -10,044 $ -273 $ 0
Oregon Public Employees Retirement Fund 2016-09-30 33,645 Sold Some -10,636 $ -289 $ 915
Ellington Management Group Llc 2016-09-30 0 Sold All -10,800 $ -293 $ 0
Globeflex Capital L P 2016-09-30 0 Sold All -11,288 $ -307 $ 0
Her Majesty The Queen In Right Of The Province Of Alberta As 2016-09-30 107,600 Sold Some -11,400 $ -310 $ 2,926
Princeton Alpha Management Lp 2016-09-30 0 Sold All -11,550 $ -314 $ 0
Candriam Luxembourg S C A 2016-09-30 0 Sold All -14,220 $ -386 $ 0
Tower Research Capital Llc Trc 2016-09-30 2,552 Sold Some -14,457 $ -393 $ 69
Graham Capital Management L P 2016-09-30 0 Sold All -15,000 $ -408 $ 0
Aperio Group Llc 2016-09-30 28,349 Sold Some -15,131 $ -411 $ 771
Qcm Cayman Ltd 2016-09-30 0 Sold All -15,328 $ -416 $ 0
Stevens Capital Management Lp 2016-09-30 0 Sold All -15,415 $ -419 $ 0
Seven Eight Capital Llc 2016-09-30 0 Sold All -16,207 $ -440 $ 0
Bluecrest Capital Management Ltd 2016-09-30 21,957 Sold Some -17,274 $ -469 $ 597
Integre Asset Management Llc 2016-09-30 0 Sold All -19,322 $ -525 $ 0
Dynamic Capital Management Ltd 2016-09-30 48,567 Sold Some -24,273 $ -660 $ 1,321
Old Mutual Global Investors Uk Ltd 2016-09-30 0 Sold All -24,764 $ -673 $ 0
Boston Advisors Llc 2016-09-30 454,870 Sold Some -26,775 $ -728 $ 12,372
Friedberg Investment Management 2016-09-30 0 Sold All -29,740 $ -808 $ 0
Menta Capital Llc 2016-09-30 0 Sold All -30,089 $ -818 $ 0
Sg Americas Securities Llc 2016-09-30 4,476 Sold Some -30,546 $ -830 $ 121
Great Lakes Advisors Llc 2016-09-30 114,425 Sold Some -30,605 $ -832 $ 3,112
Dynamic Technology Lab Private Ltd 2016-09-30 0 Sold All -33,487 $ -910 $ 0
Pnc Financial Services Group Inc 2016-09-30 9,140 Sold Some -34,452 $ -937 $ 248
Hsbc Holdings Plc 2016-09-30 13,118 Sold Some -34,896 $ -949 $ 356
Btg Pactual Global Asset Management Ltd 2016-09-30 0 Sold All -46,736 $ -1,271 $ 0
Trexquant Investment Lp 2016-09-30 0 Sold All -47,654 $ -1,296 $ 0
Kcg Holdings Inc 2016-09-30 10,701 Sold Some -49,731 $ -1,352 $ 291
Shell Asset Management Co 2016-09-30 27,392 Sold Some -51,677 $ -1,405 $ 745
Thrivent Financial For Lutherans 2016-09-30 52,740 Sold Some -54,770 $ -1,489 $ 1,434
Aviva Plc 2016-09-30 0 Sold All -57,875 $ -1,574 $ 0
Robeco Institutional Asset Management B V 2016-09-30 124,166 Sold Some -65,346 $ -1,777 $ 3,377
Northern Trust Corp 2016-09-30 1,325,193 Sold Some -71,944 $ -1,956 $ 36,045
Retirement Systems Of Alabama 2016-09-30 289,002 Sold Some -82,666 $ -2,248 $ 7,860
Hancock Holding Co 2016-09-30 0 Sold All -83,916 $ -2,282 $ 0
Airain Ltd 2016-09-30 105,517 Sold Some -96,719 $ -2,630 $ 2,870
Arosa Capital Management Lp 2016-09-30 0 Sold All -100,000 $ -2,720 $ 0
Capstone Asset Management Co 2016-09-30 8,087 Sold Some -109,485 $ -2,977 $ 219
Secor Capital Advisors Lp 2016-09-30 0 Sold All -114,034 $ -3,101 $ 0
Bright Rock Capital Management Llc 2016-09-30 35,900 Sold Some -130,000 $ -3,536 $ 976
J Goldman Co Lp 2016-09-30 0 Sold All -137,800 $ -3,748 $ 0
Jacobs Levy Equity Management Inc 2016-09-30 0 Sold All -141,376 $ -3,845 $ 0
Hutchin Hill Capital Lp 2016-09-30 0 Sold All -143,515 $ -3,903 $ 0
A R T Advisors Llc 2016-09-30 0 Sold All -170,768 $ -4,644 $ 0
Highbridge Capital Management Llc 2016-09-30 0 Sold All -182,188 $ -4,955 $ 0
Clinton Group Inc 2016-09-30 46,836 Sold Some -232,867 $ -6,333 $ 1,273
Legal General Group Plc 2016-09-30 63,798 Sold Some -299,891 $ -8,157 $ 1,735
New York State Common Retirement Fund 2016-09-30 648,105 Sold Some -335,992 $ -9,138 $ 17,628
Ferguson Wellman Capital Management Inc 2016-09-30 0 Sold All -407,620 $ -11,087 $ 0
Dalton Greiner Hartman Maher Co 2016-09-30 0 Sold All -454,445 $ -12,360 $ 0
Piedmont Investment Advisors Llc 2016-09-30 2,650 Sold Some -665,566 $ -18,103 $ 72
Royal London Asset Management Ltd 2016-06-30 35,485 Sold Some -773,466 $ -23,095 $ 1,059
Pggm Investments 2016-09-30 0 Sold All -1,021,218 $ -27,777 $ 0
Villere St Denis J Co Llc 2016-09-30 0 Sold All -1,731,488 $ -47,096 $ 0